sensor_id;sensor_type;location;lat;lon;timestamp;P1;durP1;ratioP1;P2;durP2;ratioP2
11283;SDS011;5698;47.332;11.180;2022-11-23T00:02:09;0.70;;;0.70;;
11283;SDS011;5698;47.332;11.180;2022-11-23T00:04:36;0.57;;;0.53;;
11283;SDS011;5698;47.332;11.180;2022-11-23T00:07:03;0.83;;;0.50;;
11283;SDS011;5698;47.332;11.180;2022-11-23T00:09:30;0.53;;;0.53;;
11283;SDS011;5698;47.332;11.180;2022-11-23T00:11:57;1.40;;;0.90;;
11283;SDS011;5698;47.332;11.180;2022-11-23T00:14:25;1.07;;;0.50;;
11283;SDS011;5698;47.332;11.180;2022-11-23T00:16:52;0.50;;;0.50;;
11283;SDS011;5698;47.332;11.180;2022-11-23T00:19:19;0.50;;;0.50;;
11283;SDS011;5698;47.332;11.180;2022-11-23T00:21:46;0.40;;;0.40;;
11283;SDS011;5698;47.332;11.180;2022-11-23T00:24:13;0.77;;;0.50;;
11283;SDS011;5698;47.332;11.180;2022-11-23T00:26:40;1.53;;;0.60;;
11283;SDS011;5698;47.332;11.180;2022-11-23T00:29:07;0.30;;;0.30;;
11283;SDS011;5698;47.332;11.180;2022-11-23T00:31:35;0.73;;;0.50;;
11283;SDS011;5698;47.332;11.180;2022-11-23T00:34:02;0.50;;;0.50;;
11283;SDS011;5698;47.332;11.180;2022-11-23T00:36:29;0.50;;;0.50;;
11283;SDS011;5698;47.332;11.180;2022-11-23T00:38:56;0.67;;;0.60;;
11283;SDS011;5698;47.332;11.180;2022-11-23T00:41:24;0.40;;;0.40;;
11283;SDS011;5698;47.332;11.180;2022-11-23T00:43:52;0.40;;;0.40;;
11283;SDS011;5698;47.332;11.180;2022-11-23T00:46:20;0.50;;;0.50;;
11283;SDS011;5698;47.332;11.180;2022-11-23T00:48:50;0.40;;;0.40;;
11283;SDS011;5698;47.332;11.180;2022-11-23T00:51:19;0.77;;;0.43;;
11283;SDS011;5698;47.332;11.180;2022-11-23T00:53:48;1.13;;;0.50;;
11283;SDS011;5698;47.332;11.180;2022-11-23T00:56:16;0.50;;;0.40;;
11283;SDS011;5698;47.332;11.180;2022-11-23T00:58:46;0.57;;;0.57;;
11283;SDS011;5698;47.332;11.180;2022-11-23T01:01:14;0.57;;;0.57;;
11283;SDS011;5698;47.332;11.180;2022-11-23T01:03:43;0.40;;;0.40;;
11283;SDS011;5698;47.332;11.180;2022-11-23T01:06:14;0.50;;;0.50;;
11283;SDS011;5698;47.332;11.180;2022-11-23T01:08:43;0.53;;;0.53;;
11283;SDS011;5698;47.332;11.180;2022-11-23T01:11:14;0.90;;;0.50;;
11283;SDS011;5698;47.332;11.180;2022-11-23T01:13:41;1.43;;;0.50;;
11283;SDS011;5698;47.332;11.180;2022-11-23T01:16:09;0.40;;;0.40;;
11283;SDS011;5698;47.332;11.180;2022-11-23T01:18:39;0.40;;;0.40;;
11283;SDS011;5698;47.332;11.180;2022-11-23T01:21:06;0.40;;;0.40;;
11283;SDS011;5698;47.332;11.180;2022-11-23T01:23:34;0.40;;;0.40;;
11283;SDS011;5698;47.332;11.180;2022-11-23T01:32:24;0.40;;;0.40;;
11283;SDS011;5698;47.332;11.180;2022-11-23T01:34:51;0.30;;;0.30;;
11283;SDS011;5698;47.332;11.180;2022-11-23T01:37:18;0.40;;;0.40;;
11283;SDS011;5698;47.332;11.180;2022-11-23T01:39:48;0.40;;;0.40;;
11283;SDS011;5698;47.332;11.180;2022-11-23T01:42:15;0.40;;;0.40;;
11283;SDS011;5698;47.332;11.180;2022-11-23T01:44:42;0.40;;;0.40;;
11283;SDS011;5698;47.332;11.180;2022-11-23T01:47:09;0.50;;;0.50;;
11283;SDS011;5698;47.332;11.180;2022-11-23T01:49:37;0.80;;;0.47;;
11283;SDS011;5698;47.332;11.180;2022-11-23T01:52:06;0.50;;;0.50;;
11283;SDS011;5698;47.332;11.180;2022-11-23T01:54:37;0.50;;;0.50;;
11283;SDS011;5698;47.332;11.180;2022-11-23T01:57:12;0.80;;;0.40;;
11283;SDS011;5698;47.332;11.180;2022-11-23T01:59:44;0.60;;;0.60;;
11283;SDS011;5698;47.332;11.180;2022-11-23T02:02:11;2.37;;;0.60;;
11283;SDS011;5698;47.332;11.180;2022-11-23T02:04:41;0.57;;;0.43;;
11283;SDS011;5698;47.332;11.180;2022-11-23T02:07:11;0.50;;;0.50;;
11283;SDS011;5698;47.332;11.180;2022-11-23T02:09:39;0.60;;;0.60;;
11283;SDS011;5698;47.332;11.180;2022-11-23T02:12:09;0.50;;;0.50;;
11283;SDS011;5698;47.332;11.180;2022-11-23T02:14:38;1.13;;;0.40;;
11283;SDS011;5698;47.332;11.180;2022-11-23T02:17:06;0.60;;;0.60;;
11283;SDS011;5698;47.332;11.180;2022-11-23T02:19:34;0.60;;;0.50;;
11283;SDS011;5698;47.332;11.180;2022-11-23T02:22:15;0.80;;;0.60;;
11283;SDS011;5698;47.332;11.180;2022-11-23T02:24:51;0.50;;;0.50;;
11283;SDS011;5698;47.332;11.180;2022-11-23T02:27:21;0.60;;;0.60;;
11283;SDS011;5698;47.332;11.180;2022-11-23T02:29:49;0.50;;;0.50;;
11283;SDS011;5698;47.332;11.180;2022-11-23T02:32:18;0.50;;;0.50;;
11283;SDS011;5698;47.332;11.180;2022-11-23T02:34:47;0.50;;;0.50;;
11283;SDS011;5698;47.332;11.180;2022-11-23T02:37:14;1.50;;;0.50;;
11283;SDS011;5698;47.332;11.180;2022-11-23T02:39:43;2.70;;;0.60;;
11283;SDS011;5698;47.332;11.180;2022-11-23T02:42:11;1.07;;;0.80;;
11283;SDS011;5698;47.332;11.180;2022-11-23T02:44:41;1.13;;;0.60;;
11283;SDS011;5698;47.332;11.180;2022-11-23T02:47:16;0.97;;;0.50;;
11283;SDS011;5698;47.332;11.180;2022-11-23T02:49:44;1.00;;;0.53;;
11283;SDS011;5698;47.332;11.180;2022-11-23T02:52:13;0.93;;;0.60;;
11283;SDS011;5698;47.332;11.180;2022-11-23T02:54:40;0.47;;;0.40;;
11283;SDS011;5698;47.332;11.180;2022-11-23T02:57:07;1.57;;;0.60;;
11283;SDS011;5698;47.332;11.180;2022-11-23T02:59:35;1.50;;;0.50;;
11283;SDS011;5698;47.332;11.180;2022-11-23T03:02:03;0.57;;;0.50;;
11283;SDS011;5698;47.332;11.180;2022-11-23T03:04:31;0.50;;;0.43;;
11283;SDS011;5698;47.332;11.180;2022-11-23T03:06:58;0.50;;;0.50;;
11283;SDS011;5698;47.332;11.180;2022-11-23T03:09:25;0.50;;;0.50;;
11283;SDS011;5698;47.332;11.180;2022-11-23T03:11:52;0.40;;;0.40;;
11283;SDS011;5698;47.332;11.180;2022-11-23T03:14:19;0.90;;;0.60;;
11283;SDS011;5698;47.332;11.180;2022-11-23T03:16:47;1.23;;;0.50;;
11283;SDS011;5698;47.332;11.180;2022-11-23T03:19:15;0.60;;;0.60;;
11283;SDS011;5698;47.332;11.180;2022-11-23T03:21:42;0.50;;;0.50;;
11283;SDS011;5698;47.332;11.180;2022-11-23T03:24:09;1.00;;;0.80;;
11283;SDS011;5698;47.332;11.180;2022-11-23T03:26:36;0.50;;;0.50;;
11283;SDS011;5698;47.332;11.180;2022-11-23T03:29:03;0.60;;;0.50;;
11283;SDS011;5698;47.332;11.180;2022-11-23T03:31:30;0.63;;;0.50;;
11283;SDS011;5698;47.332;11.180;2022-11-23T03:33:57;1.17;;;0.50;;
11283;SDS011;5698;47.332;11.180;2022-11-23T03:36:25;1.83;;;0.60;;
11283;SDS011;5698;47.332;11.180;2022-11-23T03:38:52;1.43;;;0.60;;
11283;SDS011;5698;47.332;11.180;2022-11-23T03:41:19;0.97;;;0.80;;
11283;SDS011;5698;47.332;11.180;2022-11-23T03:43:46;0.97;;;0.80;;
11283;SDS011;5698;47.332;11.180;2022-11-23T03:46:13;0.70;;;0.70;;
11283;SDS011;5698;47.332;11.180;2022-11-23T03:48:40;0.60;;;0.60;;
11283;SDS011;5698;47.332;11.180;2022-11-23T03:51:07;0.70;;;0.70;;
11283;SDS011;5698;47.332;11.180;2022-11-23T03:53:35;0.87;;;0.60;;
11283;SDS011;5698;47.332;11.180;2022-11-23T03:56:02;0.50;;;0.50;;
11283;SDS011;5698;47.332;11.180;2022-11-23T03:58:29;0.63;;;0.40;;
11283;SDS011;5698;47.332;11.180;2022-11-23T04:00:56;0.40;;;0.40;;
11283;SDS011;5698;47.332;11.180;2022-11-23T04:03:23;0.50;;;0.50;;
11283;SDS011;5698;47.332;11.180;2022-11-23T04:05:50;1.03;;;0.57;;
11283;SDS011;5698;47.332;11.180;2022-11-23T04:08:17;0.50;;;0.50;;
11283;SDS011;5698;47.332;11.180;2022-11-23T04:10:45;0.50;;;0.50;;
11283;SDS011;5698;47.332;11.180;2022-11-23T04:13:12;0.60;;;0.60;;
11283;SDS011;5698;47.332;11.180;2022-11-23T04:15:39;0.50;;;0.50;;
11283;SDS011;5698;47.332;11.180;2022-11-23T04:18:06;0.40;;;0.40;;
11283;SDS011;5698;47.332;11.180;2022-11-23T04:20:33;0.60;;;0.60;;
11283;SDS011;5698;47.332;11.180;2022-11-23T04:23:00;0.77;;;0.67;;
11283;SDS011;5698;47.332;11.180;2022-11-23T04:25:27;1.37;;;0.50;;
11283;SDS011;5698;47.332;11.180;2022-11-23T04:27:55;0.70;;;0.70;;
11283;SDS011;5698;47.332;11.180;2022-11-23T04:30:22;0.50;;;0.50;;
11283;SDS011;5698;47.332;11.180;2022-11-23T04:32:49;1.67;;;0.60;;
11283;SDS011;5698;47.332;11.180;2022-11-23T04:35:16;0.50;;;0.50;;
11283;SDS011;5698;47.332;11.180;2022-11-23T04:37:43;0.60;;;0.60;;
11283;SDS011;5698;47.332;11.180;2022-11-23T04:40:11;0.50;;;0.50;;
11283;SDS011;5698;47.332;11.180;2022-11-23T04:42:38;0.50;;;0.50;;
11283;SDS011;5698;47.332;11.180;2022-11-23T04:45:07;0.50;;;0.50;;
11283;SDS011;5698;47.332;11.180;2022-11-23T04:47:35;0.43;;;0.43;;
11283;SDS011;5698;47.332;11.180;2022-11-23T04:50:02;0.50;;;0.50;;
11283;SDS011;5698;47.332;11.180;2022-11-23T04:52:30;0.40;;;0.40;;
11283;SDS011;5698;47.332;11.180;2022-11-23T04:54:57;0.47;;;0.47;;
11283;SDS011;5698;47.332;11.180;2022-11-23T04:57:24;0.40;;;0.40;;
11283;SDS011;5698;47.332;11.180;2022-11-23T04:59:50;0.63;;;0.57;;
11283;SDS011;5698;47.332;11.180;2022-11-23T05:02:19;0.47;;;0.47;;
11283;SDS011;5698;47.332;11.180;2022-11-23T05:04:46;0.30;;;0.30;;
11283;SDS011;5698;47.332;11.180;2022-11-23T05:07:13;0.50;;;0.50;;
11283;SDS011;5698;47.332;11.180;2022-11-23T05:09:39;0.53;;;0.50;;
11283;SDS011;5698;47.332;11.180;2022-11-23T05:12:07;0.50;;;0.50;;
11283;SDS011;5698;47.332;11.180;2022-11-23T05:14:34;0.80;;;0.40;;
11283;SDS011;5698;47.332;11.180;2022-11-23T05:17:01;0.43;;;0.43;;
11283;SDS011;5698;47.332;11.180;2022-11-23T05:19:29;0.50;;;0.50;;
11283;SDS011;5698;47.332;11.180;2022-11-23T05:21:56;0.40;;;0.40;;
11283;SDS011;5698;47.332;11.180;2022-11-23T05:24:23;0.57;;;0.40;;
11283;SDS011;5698;47.332;11.180;2022-11-23T05:26:50;0.50;;;0.50;;
11283;SDS011;5698;47.332;11.180;2022-11-23T05:29:17;0.53;;;0.53;;
11283;SDS011;5698;47.332;11.180;2022-11-23T05:31:44;0.60;;;0.60;;
11283;SDS011;5698;47.332;11.180;2022-11-23T05:34:11;0.60;;;0.60;;
11283;SDS011;5698;47.332;11.180;2022-11-23T05:36:40;0.40;;;0.40;;
11283;SDS011;5698;47.332;11.180;2022-11-23T05:39:07;0.47;;;0.47;;
11283;SDS011;5698;47.332;11.180;2022-11-23T05:41:34;0.50;;;0.50;;
11283;SDS011;5698;47.332;11.180;2022-11-23T05:44:01;0.50;;;0.50;;
11283;SDS011;5698;47.332;11.180;2022-11-23T05:46:27;0.50;;;0.50;;
11283;SDS011;5698;47.332;11.180;2022-11-23T05:48:54;0.40;;;0.40;;
11283;SDS011;5698;47.332;11.180;2022-11-23T05:51:21;0.50;;;0.50;;
11283;SDS011;5698;47.332;11.180;2022-11-23T05:53:50;1.13;;;0.63;;
11283;SDS011;5698;47.332;11.180;2022-11-23T05:56:17;0.70;;;0.70;;
11283;SDS011;5698;47.332;11.180;2022-11-23T05:58:45;37.67;;;2.10;;
11283;SDS011;5698;47.332;11.180;2022-11-23T06:01:12;0.50;;;0.50;;
11283;SDS011;5698;47.332;11.180;2022-11-23T06:03:39;0.83;;;0.50;;
11283;SDS011;5698;47.332;11.180;2022-11-23T06:06:06;0.50;;;0.50;;
11283;SDS011;5698;47.332;11.180;2022-11-23T06:08:33;0.40;;;0.40;;
11283;SDS011;5698;47.332;11.180;2022-11-23T06:11:01;0.90;;;0.80;;
11283;SDS011;5698;47.332;11.180;2022-11-23T06:13:28;0.50;;;0.50;;
11283;SDS011;5698;47.332;11.180;2022-11-23T06:15:56;0.50;;;0.50;;
11283;SDS011;5698;47.332;11.180;2022-11-23T06:18:23;0.60;;;0.60;;
11283;SDS011;5698;47.332;11.180;2022-11-23T06:20:50;0.70;;;0.70;;
11283;SDS011;5698;47.332;11.180;2022-11-23T06:23:17;0.70;;;0.70;;
11283;SDS011;5698;47.332;11.180;2022-11-23T06:25:43;1.23;;;0.67;;
11283;SDS011;5698;47.332;11.180;2022-11-23T06:28:12;0.70;;;0.50;;
11283;SDS011;5698;47.332;11.180;2022-11-23T06:30:39;0.60;;;0.60;;
11283;SDS011;5698;47.332;11.180;2022-11-23T06:33:06;0.40;;;0.40;;
11283;SDS011;5698;47.332;11.180;2022-11-23T06:35:33;0.77;;;0.73;;
11283;SDS011;5698;47.332;11.180;2022-11-23T06:38:00;14.43;;;2.17;;
11283;SDS011;5698;47.332;11.180;2022-11-23T06:40:27;0.70;;;0.70;;
11283;SDS011;5698;47.332;11.180;2022-11-23T06:42:56;1.07;;;0.73;;
11283;SDS011;5698;47.332;11.180;2022-11-23T06:45:25;0.80;;;0.80;;
11283;SDS011;5698;47.332;11.180;2022-11-23T06:47:53;1.00;;;1.00;;
11283;SDS011;5698;47.332;11.180;2022-11-23T06:50:20;3.70;;;1.10;;
11283;SDS011;5698;47.332;11.180;2022-11-23T06:52:47;0.97;;;0.97;;
11283;SDS011;5698;47.332;11.180;2022-11-23T06:55:19;1.20;;;1.10;;
11283;SDS011;5698;47.332;11.180;2022-11-23T06:57:46;1.20;;;1.10;;
11283;SDS011;5698;47.332;11.180;2022-11-23T07:00:14;1.33;;;1.20;;
11283;SDS011;5698;47.332;11.180;2022-11-23T07:02:43;1.93;;;1.03;;
11283;SDS011;5698;47.332;11.180;2022-11-23T07:05:16;1.90;;;1.20;;
11283;SDS011;5698;47.332;11.180;2022-11-23T07:07:43;1.30;;;1.20;;
11283;SDS011;5698;47.332;11.180;2022-11-23T07:10:10;36.70;;;2.43;;
11283;SDS011;5698;47.332;11.180;2022-11-23T07:12:37;61.90;;;3.33;;
11283;SDS011;5698;47.332;11.180;2022-11-23T07:15:05;2.30;;;2.10;;
11283;SDS011;5698;47.332;11.180;2022-11-23T07:17:34;2.13;;;1.80;;
11283;SDS011;5698;47.332;11.180;2022-11-23T07:20:06;1.50;;;1.40;;
11283;SDS011;5698;47.332;11.180;2022-11-23T07:22:34;1.50;;;1.40;;
11283;SDS011;5698;47.332;11.180;2022-11-23T07:25:01;1.60;;;1.50;;
11283;SDS011;5698;47.332;11.180;2022-11-23T07:27:28;1.80;;;0.97;;
11283;SDS011;5698;47.332;11.180;2022-11-23T07:29:55;1.53;;;1.43;;
11283;SDS011;5698;47.332;11.180;2022-11-23T07:32:22;3.13;;;2.83;;
11283;SDS011;5698;47.332;11.180;2022-11-23T07:34:49;3.07;;;2.87;;
11283;SDS011;5698;47.332;11.180;2022-11-23T07:37:17;2.30;;;2.20;;
11283;SDS011;5698;47.332;11.180;2022-11-23T07:39:44;2.57;;;2.37;;
11283;SDS011;5698;47.332;11.180;2022-11-23T07:42:11;3.83;;;3.53;;
11283;SDS011;5698;47.332;11.180;2022-11-23T07:44:38;5.97;;;4.37;;
11283;SDS011;5698;47.332;11.180;2022-11-23T07:47:05;5.30;;;2.50;;
11283;SDS011;5698;47.332;11.180;2022-11-23T07:49:32;2.70;;;1.80;;
11283;SDS011;5698;47.332;11.180;2022-11-23T07:51:59;4.00;;;1.67;;
11283;SDS011;5698;47.332;11.180;2022-11-23T07:54:27;1.50;;;1.20;;
11283;SDS011;5698;47.332;11.180;2022-11-23T07:56:54;1.97;;;1.47;;
11283;SDS011;5698;47.332;11.180;2022-11-23T07:59:21;1.67;;;1.00;;
11283;SDS011;5698;47.332;11.180;2022-11-23T08:01:48;1.83;;;1.67;;
11283;SDS011;5698;47.332;11.180;2022-11-23T08:04:15;1.60;;;1.40;;
11283;SDS011;5698;47.332;11.180;2022-11-23T08:06:42;1.20;;;1.10;;
11283;SDS011;5698;47.332;11.180;2022-11-23T08:09:09;0.70;;;0.70;;
11283;SDS011;5698;47.332;11.180;2022-11-23T08:11:37;2.40;;;1.00;;
11283;SDS011;5698;47.332;11.180;2022-11-23T08:14:04;2.87;;;1.30;;
11283;SDS011;5698;47.332;11.180;2022-11-23T08:16:31;1.77;;;1.67;;
11283;SDS011;5698;47.332;11.180;2022-11-23T08:18:58;3.80;;;2.80;;
11283;SDS011;5698;47.332;11.180;2022-11-23T08:21:25;8.43;;;5.50;;
11283;SDS011;5698;47.332;11.180;2022-11-23T08:23:52;9.53;;;7.23;;
11283;SDS011;5698;47.332;11.180;2022-11-23T08:26:19;2.83;;;2.20;;
11283;SDS011;5698;47.332;11.180;2022-11-23T08:28:47;2.90;;;1.80;;
11283;SDS011;5698;47.332;11.180;2022-11-23T08:31:14;5.70;;;4.00;;
11283;SDS011;5698;47.332;11.180;2022-11-23T08:33:41;6.63;;;5.97;;
11283;SDS011;5698;47.332;11.180;2022-11-23T08:36:08;3.40;;;3.10;;
11283;SDS011;5698;47.332;11.180;2022-11-23T08:38:35;1.20;;;1.10;;
11283;SDS011;5698;47.332;11.180;2022-11-23T08:41:02;1.83;;;1.13;;
11283;SDS011;5698;47.332;11.180;2022-11-23T08:43:30;1.83;;;1.37;;
11283;SDS011;5698;47.332;11.180;2022-11-23T08:45:59;2.73;;;1.10;;
11283;SDS011;5698;47.332;11.180;2022-11-23T08:48:26;1.87;;;1.33;;
11283;SDS011;5698;47.332;11.180;2022-11-23T08:50:53;1.60;;;1.30;;
11283;SDS011;5698;47.332;11.180;2022-11-23T08:53:23;1.70;;;1.43;;
11283;SDS011;5698;47.332;11.180;2022-11-23T08:55:50;2.10;;;1.07;;
11283;SDS011;5698;47.332;11.180;2022-11-23T08:58:17;1.37;;;1.23;;
11283;SDS011;5698;47.332;11.180;2022-11-23T09:00:44;2.63;;;1.50;;
11283;SDS011;5698;47.332;11.180;2022-11-23T09:03:12;1.53;;;1.20;;
11283;SDS011;5698;47.332;11.180;2022-11-23T09:05:39;1.27;;;1.17;;
11283;SDS011;5698;47.332;11.180;2022-11-23T09:08:06;1.20;;;0.90;;
11283;SDS011;5698;47.332;11.180;2022-11-23T09:10:33;1.67;;;0.90;;
11283;SDS011;5698;47.332;11.180;2022-11-23T09:13:01;1.63;;;0.93;;
11283;SDS011;5698;47.332;11.180;2022-11-23T09:15:28;1.43;;;0.83;;
11283;SDS011;5698;47.332;11.180;2022-11-23T09:17:55;1.57;;;0.90;;
11283;SDS011;5698;47.332;11.180;2022-11-23T09:20:24;1.27;;;1.00;;
11283;SDS011;5698;47.332;11.180;2022-11-23T09:22:51;1.57;;;1.00;;
11283;SDS011;5698;47.332;11.180;2022-11-23T09:25:19;3.33;;;1.90;;
11283;SDS011;5698;47.332;11.180;2022-11-23T09:27:47;2.20;;;2.00;;
11283;SDS011;5698;47.332;11.180;2022-11-23T09:30:15;3.40;;;3.00;;
11283;SDS011;5698;47.332;11.180;2022-11-23T09:32:42;3.27;;;2.50;;
11283;SDS011;5698;47.332;11.180;2022-11-23T09:35:09;3.50;;;3.20;;
11283;SDS011;5698;47.332;11.180;2022-11-23T09:37:37;4.73;;;2.90;;
11283;SDS011;5698;47.332;11.180;2022-11-23T09:40:05;2.77;;;2.53;;
11283;SDS011;5698;47.332;11.180;2022-11-23T09:42:51;4.67;;;3.37;;
11283;SDS011;5698;47.332;11.180;2022-11-23T09:45:37;3.77;;;3.13;;
11283;SDS011;5698;47.332;11.180;2022-11-23T09:48:21;3.43;;;3.13;;
11283;SDS011;5698;47.332;11.180;2022-11-23T09:51:02;36.60;;;5.03;;
11283;SDS011;5698;47.332;11.180;2022-11-23T09:53:33;2.97;;;2.67;;
11283;SDS011;5698;47.332;11.180;2022-11-23T09:56:07;16.93;;;4.23;;
11283;SDS011;5698;47.332;11.180;2022-11-23T09:58:41;25.37;;;5.40;;
11283;SDS011;5698;47.332;11.180;2022-11-23T10:01:10;5.87;;;4.47;;
11283;SDS011;5698;47.332;11.180;2022-11-23T10:03:41;10.23;;;4.40;;
11283;SDS011;5698;47.332;11.180;2022-11-23T10:06:13;4.27;;;3.83;;
11283;SDS011;5698;47.332;11.180;2022-11-23T10:08:47;4.33;;;3.93;;
11283;SDS011;5698;47.332;11.180;2022-11-23T10:11:43;34.30;;;6.17;;
11283;SDS011;5698;47.332;11.180;2022-11-23T10:14:31;5.80;;;4.43;;
11283;SDS011;5698;47.332;11.180;2022-11-23T10:17:12;9.67;;;4.57;;
11283;SDS011;5698;47.332;11.180;2022-11-23T10:19:51;5.33;;;3.90;;
11283;SDS011;5698;47.332;11.180;2022-11-23T10:22:29;4.40;;;4.00;;
11283;SDS011;5698;47.332;11.180;2022-11-23T10:25:11;4.77;;;4.37;;
11283;SDS011;5698;47.332;11.180;2022-11-23T10:27:42;25.60;;;6.80;;
11283;SDS011;5698;47.332;11.180;2022-11-23T10:30:12;14.07;;;4.17;;
11283;SDS011;5698;47.332;11.180;2022-11-23T10:32:43;52.33;;;7.53;;
11283;SDS011;5698;47.332;11.180;2022-11-23T10:35:15;4.47;;;3.90;;
11283;SDS011;5698;47.332;11.180;2022-11-23T10:37:47;4.50;;;4.10;;
11283;SDS011;5698;47.332;11.180;2022-11-23T10:40:16;5.00;;;4.50;;
11283;SDS011;5698;47.332;11.180;2022-11-23T10:42:47;5.40;;;4.70;;
11283;SDS011;5698;47.332;11.180;2022-11-23T10:45:18;4.20;;;3.80;;
11283;SDS011;5698;47.332;11.180;2022-11-23T10:47:50;4.37;;;3.97;;
11283;SDS011;5698;47.332;11.180;2022-11-23T10:50:22;4.87;;;4.30;;
11283;SDS011;5698;47.332;11.180;2022-11-23T10:52:54;4.30;;;3.80;;
11283;SDS011;5698;47.332;11.180;2022-11-23T10:55:25;5.07;;;4.57;;
11283;SDS011;5698;47.332;11.180;2022-11-23T10:57:54;3.30;;;2.77;;
11283;SDS011;5698;47.332;11.180;2022-11-23T11:00:22;4.33;;;3.10;;
11283;SDS011;5698;47.332;11.180;2022-11-23T11:02:51;3.40;;;3.10;;
11283;SDS011;5698;47.332;11.180;2022-11-23T11:05:30;3.30;;;3.00;;
11283;SDS011;5698;47.332;11.180;2022-11-23T11:07:59;2.60;;;2.40;;
11283;SDS011;5698;47.332;11.180;2022-11-23T11:10:32;2.97;;;2.67;;
11283;SDS011;5698;47.332;11.180;2022-11-23T11:13:03;2.60;;;2.40;;
11283;SDS011;5698;47.332;11.180;2022-11-23T11:15:49;3.17;;;2.40;;
11283;SDS011;5698;47.332;11.180;2022-11-23T11:18:18;2.10;;;1.97;;
11283;SDS011;5698;47.332;11.180;2022-11-23T11:20:45;1.43;;;1.33;;
11283;SDS011;5698;47.332;11.180;2022-11-23T11:23:15;1.47;;;1.00;;
11283;SDS011;5698;47.332;11.180;2022-11-23T11:25:45;0.80;;;0.80;;
11283;SDS011;5698;47.332;11.180;2022-11-23T11:28:20;1.33;;;0.93;;
11283;SDS011;5698;47.332;11.180;2022-11-23T11:30:52;1.50;;;1.10;;
11283;SDS011;5698;47.332;11.180;2022-11-23T11:33:25;1.13;;;1.03;;
11283;SDS011;5698;47.332;11.180;2022-11-23T11:35:59;1.30;;;1.20;;
11283;SDS011;5698;47.332;11.180;2022-11-23T11:38:29;1.60;;;1.50;;
11283;SDS011;5698;47.332;11.180;2022-11-23T11:41:01;1.50;;;1.40;;
11283;SDS011;5698;47.332;11.180;2022-11-23T11:43:33;2.70;;;1.40;;
11283;SDS011;5698;47.332;11.180;2022-11-23T11:46:04;1.50;;;1.30;;
11283;SDS011;5698;47.332;11.180;2022-11-23T11:48:38;1.50;;;1.40;;
11283;SDS011;5698;47.332;11.180;2022-11-23T11:51:08;1.90;;;1.70;;
11283;SDS011;5698;47.332;11.180;2022-11-23T11:53:40;3.70;;;2.03;;
11283;SDS011;5698;47.332;11.180;2022-11-23T11:56:13;2.47;;;2.00;;
11283;SDS011;5698;47.332;11.180;2022-11-23T11:58:48;2.50;;;2.30;;
11283;SDS011;5698;47.332;11.180;2022-11-23T12:01:28;2.70;;;2.50;;
11283;SDS011;5698;47.332;11.180;2022-11-23T12:04:01;2.37;;;1.80;;
11283;SDS011;5698;47.332;11.180;2022-11-23T12:06:34;2.90;;;2.30;;
11283;SDS011;5698;47.332;11.180;2022-11-23T12:09:06;2.50;;;2.30;;
11283;SDS011;5698;47.332;11.180;2022-11-23T12:11:39;10.27;;;2.37;;
11283;SDS011;5698;47.332;11.180;2022-11-23T12:14:08;2.40;;;2.20;;
11283;SDS011;5698;47.332;11.180;2022-11-23T12:16:39;2.40;;;2.20;;
11283;SDS011;5698;47.332;11.180;2022-11-23T12:19:15;2.40;;;2.20;;
11283;SDS011;5698;47.332;11.180;2022-11-23T12:24:36;2.30;;;2.10;;
11283;SDS011;5698;47.332;11.180;2022-11-23T12:27:17;1.80;;;1.70;;
11283;SDS011;5698;47.332;11.180;2022-11-23T12:29:57;2.40;;;2.20;;
11283;SDS011;5698;47.332;11.180;2022-11-23T12:32:40;2.50;;;2.27;;
11283;SDS011;5698;47.332;11.180;2022-11-23T12:35:21;3.40;;;2.87;;
11283;SDS011;5698;47.332;11.180;2022-11-23T12:38:02;3.17;;;2.93;;
11283;SDS011;5698;47.332;11.180;2022-11-23T12:40:39;3.10;;;2.80;;
11283;SDS011;5698;47.332;11.180;2022-11-23T12:43:16;2.27;;;2.07;;
11283;SDS011;5698;47.332;11.180;2022-11-23T12:45:59;3.80;;;3.50;;
11283;SDS011;5698;47.332;11.180;2022-11-23T12:48:36;4.57;;;3.80;;
11283;SDS011;5698;47.332;11.180;2022-11-23T12:51:20;4.50;;;4.10;;
11283;SDS011;5698;47.332;11.180;2022-11-23T12:53:57;3.87;;;3.47;;
11283;SDS011;5698;47.332;11.180;2022-11-23T12:56:45;3.20;;;2.50;;
11283;SDS011;5698;47.332;11.180;2022-11-23T12:59:21;1.30;;;1.20;;
11283;SDS011;5698;47.332;11.180;2022-11-23T13:01:52;1.53;;;1.43;;
11283;SDS011;5698;47.332;11.180;2022-11-23T13:04:40;1.60;;;1.50;;
11283;SDS011;5698;47.332;11.180;2022-11-23T13:10:37;2.40;;;2.17;;
11283;SDS011;5698;47.332;11.180;2022-11-23T13:13:15;5.27;;;3.73;;
11283;SDS011;5698;47.332;11.180;2022-11-23T13:21:54;7.20;;;6.40;;
11283;SDS011;5698;47.332;11.180;2022-11-23T13:24:24;8.77;;;7.87;;
11283;SDS011;5698;47.332;11.180;2022-11-23T13:29:56;3.60;;;3.30;;
11283;SDS011;5698;47.332;11.180;2022-11-23T13:32:40;5.30;;;3.87;;
11283;SDS011;5698;47.332;11.180;2022-11-23T13:44:11;1.20;;;1.10;;
11283;SDS011;5698;47.332;11.180;2022-11-23T13:46:51;1.97;;;1.00;;
11283;SDS011;5698;47.332;11.180;2022-11-23T13:49:31;1.03;;;0.90;;
11283;SDS011;5698;47.332;11.180;2022-11-23T13:52:05;1.30;;;1.20;;
11283;SDS011;5698;47.332;11.180;2022-11-23T13:54:52;2.20;;;1.13;;
11283;SDS011;5698;47.332;11.180;2022-11-23T13:57:21;1.40;;;1.20;;
11283;SDS011;5698;47.332;11.180;2022-11-23T13:59:48;1.80;;;1.30;;
11283;SDS011;5698;47.332;11.180;2022-11-23T14:07:54;1.27;;;1.07;;
11283;SDS011;5698;47.332;11.180;2022-11-23T14:10:24;1.27;;;1.17;;
11283;SDS011;5698;47.332;11.180;2022-11-23T14:12:57;1.70;;;1.33;;
11283;SDS011;5698;47.332;11.180;2022-11-23T14:15:28;1.80;;;1.27;;
11283;SDS011;5698;47.332;11.180;2022-11-23T14:18:03;1.40;;;1.10;;
11283;SDS011;5698;47.332;11.180;2022-11-23T14:20:49;1.03;;;0.97;;
11283;SDS011;5698;47.332;11.180;2022-11-23T14:26:29;0.97;;;0.90;;
11283;SDS011;5698;47.332;11.180;2022-11-23T14:29:05;1.40;;;1.17;;
11283;SDS011;5698;47.332;11.180;2022-11-23T14:31:48;1.10;;;1.00;;
11283;SDS011;5698;47.332;11.180;2022-11-23T14:34:27;1.30;;;0.90;;
11283;SDS011;5698;47.332;11.180;2022-11-23T14:37:02;0.90;;;0.90;;
11283;SDS011;5698;47.332;11.180;2022-11-23T14:39:47;0.80;;;0.80;;
11283;SDS011;5698;47.332;11.180;2022-11-23T14:42:33;1.10;;;0.90;;
11283;SDS011;5698;47.332;11.180;2022-11-23T14:45:04;0.80;;;0.80;;
11283;SDS011;5698;47.332;11.180;2022-11-23T14:47:32;1.53;;;1.00;;
11283;SDS011;5698;47.332;11.180;2022-11-23T14:49:59;0.90;;;0.80;;
11283;SDS011;5698;47.332;11.180;2022-11-23T14:52:26;1.30;;;1.00;;
11283;SDS011;5698;47.332;11.180;2022-11-23T14:54:56;1.40;;;1.30;;
11283;SDS011;5698;47.332;11.180;2022-11-23T14:57:27;1.50;;;1.20;;
11283;SDS011;5698;47.332;11.180;2022-11-23T14:59:59;1.83;;;1.23;;
11283;SDS011;5698;47.332;11.180;2022-11-23T15:02:29;2.60;;;1.50;;
11283;SDS011;5698;47.332;11.180;2022-11-23T15:05:01;1.20;;;1.10;;
11283;SDS011;5698;47.332;11.180;2022-11-23T15:07:38;1.30;;;1.20;;
11283;SDS011;5698;47.332;11.180;2022-11-23T15:10:17;1.10;;;1.00;;
11283;SDS011;5698;47.332;11.180;2022-11-23T15:12:53;1.30;;;1.20;;
11283;SDS011;5698;47.332;11.180;2022-11-23T15:15:22;1.30;;;1.20;;
11283;SDS011;5698;47.332;11.180;2022-11-23T15:17:50;1.40;;;1.20;;
11283;SDS011;5698;47.332;11.180;2022-11-23T15:20:18;1.63;;;1.17;;
11283;SDS011;5698;47.332;11.180;2022-11-23T15:22:46;1.30;;;1.20;;
11283;SDS011;5698;47.332;11.180;2022-11-23T15:25:14;1.10;;;1.00;;
11283;SDS011;5698;47.332;11.180;2022-11-23T15:27:44;1.80;;;1.70;;
11283;SDS011;5698;47.332;11.180;2022-11-23T15:30:14;2.30;;;1.90;;
11283;SDS011;5698;47.332;11.180;2022-11-23T15:32:47;1.67;;;1.47;;
11283;SDS011;5698;47.332;11.180;2022-11-23T15:35:22;1.20;;;1.10;;
11283;SDS011;5698;47.332;11.180;2022-11-23T15:37:50;1.20;;;1.10;;
11283;SDS011;5698;47.332;11.180;2022-11-23T15:40:17;1.90;;;1.10;;
11283;SDS011;5698;47.332;11.180;2022-11-23T15:42:45;1.23;;;1.10;;
11283;SDS011;5698;47.332;11.180;2022-11-23T15:45:31;1.33;;;1.23;;